createdAt,value
2019-02-10T00:01:49.249Z,12.07
2019-02-10T00:05:08.162Z,15.23
2019-02-10T00:08:16.627Z,16.67
2019-02-10T00:11:25.327Z,14.33
2019-02-10T00:14:34.104Z,16.73
2019-02-10T00:17:42.763Z,19.27
2019-02-10T00:20:51.291Z,13.00
2019-02-10T00:24:00.148Z,12.10
2019-02-10T00:27:08.765Z,9.97
2019-02-10T00:30:27.596Z,9.77
2019-02-10T00:33:36.885Z,15.07
2019-02-10T00:36:46.163Z,9.63
2019-02-10T00:39:54.750Z,12.30
2019-02-10T00:43:04.685Z,13.27
2019-02-10T00:46:23.643Z,10.77
2019-02-10T00:49:32.206Z,16.03
2019-02-10T00:52:40.849Z,13.43
2019-02-10T00:55:49.437Z,16.67
2019-02-10T00:58:58.038Z,13.83
2019-02-10T01:02:06.995Z,18.10
2019-02-10T01:05:15.558Z,12.00
2019-02-10T01:08:35.289Z,14.70
2019-02-10T01:11:45.471Z,11.53
2019-02-10T01:14:54.049Z,11.93
2019-02-10T01:18:02.705Z,13.70
2019-02-10T01:21:21.611Z,12.53
2019-02-10T01:24:30.112Z,13.67
2019-02-10T01:27:38.700Z,12.97
2019-02-10T01:30:48.923Z,12.20
2019-02-10T01:33:57.532Z,9.30
2019-02-10T01:37:06.223Z,14.27
2019-02-10T01:40:14.957Z,13.77
2019-02-10T01:43:33.687Z,17.87
2019-02-10T01:46:42.255Z,14.60
2019-02-10T01:49:50.820Z,14.83
2019-02-10T01:52:59.575Z,16.50
2019-02-10T01:56:08.137Z,16.07
2019-02-10T01:59:16.737Z,13.47
2019-02-10T02:02:25.390Z,12.27
2019-02-10T02:05:44.794Z,11.90
2019-02-10T02:09:05.233Z,11.90
2019-02-10T02:12:13.937Z,10.33
2019-02-10T02:15:22.487Z,10.83
2019-02-10T02:18:31.068Z,14.67
2019-02-10T02:21:39.747Z,14.53
2019-02-10T02:24:48.371Z,13.30
2019-02-10T02:27:57.153Z,10.87
2019-02-10T02:31:05.808Z,9.70
2019-02-10T02:34:24.509Z,12.13
2019-02-10T02:37:32.976Z,12.20
2019-02-10T02:40:41.739Z,13.90
2019-02-10T02:43:50.316Z,15.83
2019-02-10T02:46:58.874Z,13.47
2019-02-10T02:50:10.295Z,13.73
2019-02-10T02:53:18.799Z,13.93
2019-02-10T02:56:27.268Z,9.33
2019-02-10T02:59:35.846Z,17.07
2019-02-10T03:02:44.520Z,12.03
2019-02-10T03:05:53.087Z,11.20
2019-02-10T03:09:11.848Z,11.80
2019-02-10T03:12:20.324Z,10.47
2019-02-10T03:15:28.895Z,10.73
2019-02-10T03:18:38.152Z,11.97
2019-02-10T03:21:46.827Z,12.80
2019-02-10T03:24:55.416Z,11.40
2019-02-10T03:28:03.996Z,14.63
2019-02-10T03:31:12.581Z,10.03
2019-02-10T03:34:21.129Z,11.80
2019-02-10T03:37:40.016Z,11.70
2019-02-10T03:40:48.717Z,11.93
2019-02-10T03:43:57.272Z,11.57
2019-02-10T03:47:06.953Z,11.10
2019-02-10T03:50:25.891Z,8.63
2019-02-10T03:53:34.445Z,8.63
2019-02-10T03:56:43.014Z,10.47
2019-02-10T03:59:51.462Z,10.00
2019-02-10T04:03:00.126Z,11.03
2019-02-10T04:06:08.704Z,11.80
2019-02-10T04:09:27.507Z,10.53
2019-02-10T04:12:38.106Z,11.57
2019-02-10T04:15:46.578Z,10.40
2019-02-10T04:18:55.120Z,10.30
2019-02-10T04:22:03.789Z,13.13
2019-02-10T04:25:12.271Z,10.33
2019-02-10T04:28:20.898Z,11.27
2019-02-10T04:31:39.758Z,11.13
2019-02-10T04:34:48.501Z,10.23
2019-02-10T04:37:56.961Z,15.63
2019-02-10T04:41:05.954Z,12.73
2019-02-10T04:44:14.428Z,8.60
2019-02-10T04:47:22.982Z,9.30
2019-02-10T04:50:31.608Z,9.90
2019-02-10T04:53:40.175Z,9.33
2019-02-10T04:56:59.026Z,8.53
2019-02-10T05:00:08.793Z,16.37
2019-02-10T05:03:17.353Z,8.47
2019-02-10T05:06:25.898Z,12.10
2019-02-10T05:09:45.010Z,11.07
2019-02-10T05:12:53.664Z,11.97
2019-02-10T05:16:02.226Z,11.00
2019-02-10T05:19:10.788Z,10.07
2019-02-10T05:22:19.501Z,10.43
2019-02-10T05:25:28.085Z,9.17
2019-02-10T05:28:46.786Z,12.13
2019-02-10T05:31:55.426Z,11.10
2019-02-10T05:35:03.993Z,9.53
2019-02-10T05:38:12.472Z,8.77
2019-02-10T05:41:21.104Z,7.83
2019-02-10T05:44:29.667Z,9.13
2019-02-10T05:47:48.485Z,9.10
2019-02-10T05:50:57.095Z,10.63
2019-02-10T05:54:05.776Z,14.93
2019-02-10T05:57:14.317Z,12.90
2019-02-10T06:00:23.128Z,9.03
2019-02-10T06:03:31.755Z,8.40
2019-02-10T06:06:40.349Z,8.60
2019-02-10T06:09:49.284Z,12.80
2019-02-10T06:12:57.828Z,9.90
2019-02-10T06:16:16.628Z,9.57
2019-02-10T06:19:26.294Z,10.83
2019-02-10T06:22:34.859Z,9.03
2019-02-10T06:25:53.606Z,11.13
2019-02-10T06:29:02.110Z,7.13
2019-02-10T06:32:10.683Z,12.53
2019-02-10T06:35:19.244Z,10.63
2019-02-10T06:38:28.111Z,13.47
2019-02-10T06:41:36.790Z,8.37
2019-02-10T06:44:45.434Z,10.23
2019-02-10T06:47:53.978Z,10.27
2019-02-10T06:51:17.577Z,9.17
2019-02-10T06:54:26.144Z,8.30
2019-02-10T06:57:34.707Z,8.90
2019-02-10T07:01:07.747Z,8.73
2019-02-10T07:04:22.651Z,5.53
2019-02-10T07:07:31.112Z,6.67
2019-02-10T07:10:49.942Z,11.10
2019-02-10T07:14:03.413Z,7.73
2019-02-10T07:18:07.889Z,7.47
2019-02-10T07:21:16.358Z,7.50
2019-02-10T07:24:40.169Z,6.10
2019-02-10T07:27:49.401Z,8.83
2019-02-10T07:30:58.213Z,10.87
2019-02-10T07:35:08.298Z,6.23
2019-02-10T07:39:05.246Z,7.93
2019-02-10T07:42:53.828Z,9.90
2019-02-10T07:46:59.221Z,7.00
2019-02-10T07:51:02.734Z,6.83
2019-02-10T07:55:03.091Z,7.67
2019-02-10T07:59:19.404Z,6.97
2019-02-10T08:03:02.241Z,11.20
2019-02-10T08:06:26.717Z,8.23
2019-02-10T08:10:38.480Z,11.83
2019-02-10T08:14:27.546Z,10.27
2019-02-10T08:18:30.968Z,10.67
2019-02-10T08:21:57.857Z,7.87
2019-02-10T08:26:00.199Z,6.03
2019-02-10T08:29:25.992Z,6.03
2019-02-10T08:32:59.619Z,11.03
2019-02-10T08:36:58.992Z,10.17
2019-02-10T08:41:11.968Z,8.20
2019-02-10T08:45:06.957Z,5.93
2019-02-10T08:49:29.909Z,8.87
2019-02-10T08:52:52.153Z,10.13
2019-02-10T08:56:01.041Z,6.57
2019-02-10T08:59:09.577Z,7.90
2019-02-10T09:02:28.792Z,6.67
2019-02-10T09:05:37.244Z,8.50
2019-02-10T09:08:45.704Z,7.47
2019-02-10T09:11:54.238Z,7.50
2019-02-10T09:15:13.287Z,7.83
2019-02-10T09:18:32.355Z,11.37
2019-02-10T09:21:40.992Z,9.07
2019-02-10T09:24:50.049Z,9.17
2019-02-10T09:27:58.631Z,11.27
2019-02-10T09:31:07.346Z,8.70
2019-02-10T09:34:15.905Z,8.43
2019-02-10T09:37:24.472Z,7.77
2019-02-10T09:40:32.961Z,7.33
2019-02-10T09:43:41.491Z,8.07
2019-02-10T09:47:00.405Z,7.93
2019-02-10T09:50:16.215Z,5.67
2019-02-10T09:53:37.972Z,6.40
2019-02-10T09:56:46.528Z,5.43
2019-02-10T09:59:55.093Z,7.07
2019-02-10T10:03:03.648Z,10.40
2019-02-10T10:06:12.145Z,8.80
2019-02-10T10:09:30.868Z,9.57
2019-02-10T10:12:39.548Z,5.60
2019-02-10T10:15:48.110Z,5.37
2019-02-10T10:18:56.658Z,7.63
2019-02-10T10:22:05.221Z,6.20
2019-02-10T10:25:23.854Z,6.77
2019-02-10T10:28:32.392Z,7.20
2019-02-10T10:31:41.083Z,9.30
2019-02-10T10:34:49.617Z,9.77
2019-02-10T10:37:58.205Z,5.57
2019-02-10T10:41:06.876Z,5.97
2019-02-10T10:44:15.453Z,7.00
2019-02-10T10:47:34.397Z,7.40
2019-02-10T10:50:42.979Z,7.37
2019-02-10T10:53:51.527Z,4.57
2019-02-10T10:56:59.993Z,4.77
2019-02-10T11:00:10.403Z,4.63
2019-02-10T11:03:18.861Z,6.60
2019-02-10T11:06:37.768Z,5.80
2019-02-10T11:09:46.621Z,5.93
2019-02-10T11:12:55.198Z,4.17
2019-02-10T11:16:03.732Z,7.77
2019-02-10T11:19:12.310Z,8.53
2019-02-10T11:22:20.891Z,5.20
2019-02-10T11:25:29.523Z,5.70
2019-02-10T11:28:48.378Z,5.73
2019-02-10T11:31:56.994Z,6.53
2019-02-10T11:35:05.685Z,7.77
2019-02-10T11:38:14.246Z,4.17
2019-02-10T11:41:22.909Z,5.17
2019-02-10T11:44:31.462Z,4.50
2019-02-10T11:47:41.166Z,5.50
2019-02-10T11:50:49.632Z,5.50
2019-02-10T11:54:04.335Z,6.60
2019-02-10T11:57:12.874Z,5.13
2019-02-10T12:00:31.714Z,3.93
2019-02-10T12:03:40.273Z,4.43
2019-02-10T12:06:48.933Z,5.00
2019-02-10T12:09:57.571Z,4.47
2019-02-10T12:13:04.715Z,4.13
2019-02-10T12:16:13.306Z,4.43
2019-02-10T12:19:21.789Z,4.90
2019-02-10T12:22:40.787Z,5.47
2019-02-10T12:25:49.366Z,4.33
2019-02-10T12:28:57.927Z,4.07
2019-02-10T12:32:06.518Z,2.53
2019-02-10T12:35:15.333Z,3.20
2019-02-10T12:38:23.910Z,4.87
2019-02-10T12:41:32.733Z,7.47
2019-02-10T12:44:41.349Z,4.70
2019-02-10T12:48:00.145Z,3.50
2019-02-10T12:51:08.737Z,3.67
2019-02-10T12:54:17.306Z,5.60
2019-02-10T12:57:25.856Z,4.07
2019-02-10T13:00:34.744Z,2.93
2019-02-10T13:03:43.192Z,4.63
2019-02-10T13:06:51.769Z,2.80
2019-02-10T13:10:13.462Z,4.10
2019-02-10T13:13:21.973Z,4.23
2019-02-10T13:16:30.466Z,2.77
2019-02-10T13:19:39.030Z,2.60
2019-02-10T13:22:58.110Z,3.67
2019-02-10T13:26:05.176Z,2.90
2019-02-10T13:29:13.744Z,3.43
2019-02-10T13:32:22.206Z,4.30
2019-02-10T13:35:30.796Z,4.17
2019-02-10T13:38:39.243Z,5.67
2019-02-10T13:41:55.792Z,5.17
2019-02-10T13:45:04.916Z,3.53
2019-02-10T13:48:13.460Z,4.17
2019-02-10T13:51:21.961Z,4.63
2019-02-10T13:54:30.556Z,4.40
2019-02-10T13:57:49.513Z,3.03
2019-02-10T14:00:58.064Z,4.57
2019-02-10T14:04:06.605Z,3.37
2019-02-10T14:07:15.085Z,3.73
2019-02-10T14:10:25.742Z,3.37
2019-02-10T14:13:33.984Z,2.60
2019-02-10T14:16:52.886Z,2.30
2019-02-10T14:20:01.340Z,1.97
2019-02-10T14:23:09.896Z,2.37
2019-02-10T14:26:18.503Z,2.60
2019-02-10T14:29:27.076Z,1.70
2019-02-10T14:32:45.861Z,1.80
2019-02-10T14:35:55.387Z,1.73
2019-02-10T14:39:05.301Z,1.80
2019-02-10T14:42:12.873Z,2.07
2019-02-10T14:45:21.523Z,2.10
2019-02-10T14:48:40.399Z,2.10
2019-02-10T14:51:49.014Z,1.87
2019-02-10T14:54:57.447Z,2.40
2019-02-10T14:58:06.132Z,1.53
2019-02-10T15:01:14.639Z,1.40
2019-02-10T15:04:33.329Z,1.80
2019-02-10T15:07:41.913Z,1.83
2019-02-10T15:10:50.530Z,1.57
2019-02-10T15:13:59.354Z,2.07
2019-02-10T15:17:07.904Z,2.57
2019-02-10T15:20:16.454Z,1.70
2019-02-10T15:23:25.078Z,2.20
2019-02-10T15:26:43.861Z,2.00
2019-02-10T15:29:52.330Z,2.00
2019-02-10T15:33:00.887Z,1.70
2019-02-10T15:36:09.485Z,2.10
2019-02-10T15:39:17.972Z,2.03
2019-02-10T15:42:36.916Z,2.00
2019-02-10T15:45:45.368Z,2.60
2019-02-10T15:48:53.805Z,2.33
2019-02-10T15:52:02.352Z,3.07
2019-02-10T15:55:20.995Z,2.80
2019-02-10T15:58:29.599Z,3.40
2019-02-10T16:01:38.196Z,3.90
2019-02-10T16:04:46.687Z,4.17
2019-02-10T16:07:55.160Z,3.83
2019-02-10T16:11:13.983Z,3.17
2019-02-10T16:14:22.431Z,3.70
2019-02-10T16:17:30.861Z,3.60
2019-02-10T16:20:39.504Z,4.20
2019-02-10T16:23:48.112Z,4.77
2019-02-10T16:27:06.892Z,4.70
2019-02-10T16:30:15.704Z,5.00
2019-02-10T16:33:24.132Z,4.47
2019-02-10T16:36:32.591Z,4.87
2019-02-10T16:39:41.072Z,4.67
2019-02-10T16:42:59.798Z,5.57
2019-02-10T16:46:08.258Z,4.90
2019-02-10T16:49:16.822Z,5.17
2019-02-10T16:52:25.409Z,4.70
2019-02-10T16:55:33.886Z,4.77
2019-02-10T16:58:52.756Z,6.70
2019-02-10T17:02:01.788Z,4.77
2019-02-10T17:05:09.392Z,5.00
2019-02-10T17:08:28.123Z,4.17
2019-02-10T17:11:36.685Z,4.07
2019-02-10T17:14:45.200Z,3.77
2019-02-10T17:17:53.625Z,4.37
2019-02-10T17:21:12.325Z,4.27
2019-02-10T17:24:20.787Z,4.20
2019-02-10T17:27:29.313Z,4.13
2019-02-10T17:30:37.843Z,4.00
2019-02-10T17:33:46.320Z,4.73
2019-02-10T17:37:05.260Z,4.67
2019-02-10T17:40:20.001Z,4.13
2019-02-10T17:43:28.588Z,4.07
2019-02-10T17:46:37.035Z,3.77
2019-02-10T17:49:58.860Z,3.90
2019-02-10T17:53:07.330Z,3.23
2019-02-10T17:56:15.798Z,3.20
2019-02-10T17:59:24.239Z,3.30
2019-02-10T18:02:32.902Z,3.23
2019-02-10T18:05:51.735Z,3.00
2019-02-10T18:09:00.268Z,2.47
2019-02-10T18:12:08.753Z,2.20
2019-02-10T18:15:34.433Z,2.60
2019-02-10T18:19:13.977Z,2.60
2019-02-10T18:22:53.356Z,2.63
2019-02-10T18:26:19.264Z,2.20
2019-02-10T18:29:43.737Z,2.53
2019-02-10T18:33:00.249Z,2.07
2019-02-10T18:36:30.598Z,2.10
2019-02-10T18:39:46.389Z,1.90
2019-02-10T18:43:39.511Z,2.27
2019-02-10T18:46:55.034Z,1.70
2019-02-10T18:50:12.228Z,2.77
2019-02-10T18:53:38.630Z,2.60
2019-02-10T18:57:11.944Z,2.03
2019-02-10T19:00:56.454Z,2.80
2019-02-10T19:04:31.165Z,3.47
2019-02-10T19:07:45.749Z,2.40
2019-02-10T19:11:10.985Z,3.23
2019-02-10T19:14:43.117Z,2.10
2019-02-10T19:18:20.102Z,1.90
2019-02-10T19:21:35.820Z,2.10
2019-02-10T19:25:24.611Z,2.60
2019-02-10T19:28:52.077Z,2.80
2019-02-10T19:32:13.186Z,3.20
2019-02-10T19:35:39.298Z,3.33
2019-02-10T19:39:29.676Z,3.73
2019-02-10T19:42:44.648Z,3.63
2019-02-10T19:46:06.197Z,5.63
2019-02-10T19:49:32.117Z,5.97
2019-02-10T19:53:09.531Z,5.80
2019-02-10T19:56:45.924Z,4.97
2019-02-10T20:00:06.773Z,5.03
2019-02-10T20:03:46.245Z,3.17
2019-02-10T20:07:12.160Z,2.30
2019-02-10T20:10:31.097Z,1.30
2019-02-10T20:13:58.449Z,2.30
2019-02-10T20:17:15.380Z,0.90
2019-02-10T20:20:54.733Z,1.30
2019-02-10T20:24:31.039Z,0.70
2019-02-10T20:28:07.692Z,0.60
2019-02-10T20:31:45.688Z,0.67
2019-02-10T20:35:27.601Z,1.30
2019-02-10T20:39:19.290Z,1.50
2019-02-10T20:42:34.494Z,1.33
2019-02-10T20:46:10.636Z,1.80
2019-02-10T20:49:38.228Z,0.50
2019-02-10T20:53:32.921Z,1.37
2019-02-10T20:56:48.072Z,0.60
2019-02-10T21:00:03.773Z,0.70
2019-02-10T21:03:43.706Z,0.67
2019-02-10T21:07:37.938Z,0.70
2019-02-10T21:11:07.241Z,0.70
2019-02-10T21:15:01.876Z,0.60
2019-02-10T21:18:30.447Z,0.50
2019-02-10T21:22:11.244Z,0.67
2019-02-10T21:25:32.922Z,0.60
2019-02-10T21:28:55.099Z,1.33
2019-02-10T21:32:41.351Z,1.50
2019-02-10T21:36:12.608Z,1.30
2019-02-10T21:40:03.282Z,1.20
2019-02-10T21:43:43.891Z,1.10
2019-02-10T21:47:12.547Z,1.20
2019-02-10T21:50:23.583Z,1.40
2019-02-10T21:53:38.201Z,1.70
2019-02-10T21:56:50.139Z,1.40
2019-02-10T21:59:58.730Z,1.70
2019-02-10T22:03:20.407Z,1.93
2019-02-10T22:06:41.587Z,2.07
2019-02-10T22:10:02.899Z,1.93
2019-02-10T22:13:13.704Z,2.10
2019-02-10T22:16:22.381Z,1.80
2019-02-10T22:19:30.979Z,3.07
2019-02-10T22:22:39.516Z,2.17
2019-02-10T22:25:47.952Z,2.47
2019-02-10T22:28:59.272Z,2.63
2019-02-10T22:32:07.895Z,2.43
2019-02-10T22:35:16.332Z,2.67
2019-02-10T22:38:24.918Z,3.10
2019-02-10T22:41:43.830Z,3.40
2019-02-10T22:44:55.153Z,4.53
2019-02-10T22:48:05.742Z,5.90
2019-02-10T22:51:17.149Z,5.47
2019-02-10T22:54:38.544Z,7.03
2019-02-10T22:57:48.050Z,8.77
2019-02-10T23:01:04.539Z,11.17
2019-02-10T23:04:14.139Z,9.23
2019-02-10T23:07:34.715Z,10.60
2019-02-10T23:10:46.141Z,10.27
2019-02-10T23:13:56.193Z,12.43
2019-02-10T23:17:05.616Z,14.97
2019-02-10T23:20:16.137Z,9.87
2019-02-10T23:23:29.976Z,15.27
2019-02-10T23:26:38.627Z,13.57
2019-02-10T23:29:47.103Z,13.37
2019-02-10T23:32:55.565Z,14.97
2019-02-10T23:36:04.079Z,10.23
2019-02-10T23:39:12.645Z,14.30
2019-02-10T23:42:31.620Z,11.60
2019-02-10T23:45:40.233Z,17.50
2019-02-10T23:48:48.735Z,11.07
2019-02-10T23:51:57.358Z,10.83
2019-02-10T23:55:06.101Z,13.50
2019-02-10T23:58:14.549Z,16.33
